createdAt,value
2023-01-02T00:00:55.222Z,12.50
2023-01-02T00:01:55.516Z,12.60
2023-01-02T00:02:55.297Z,11.50
2023-01-02T00:03:55.362Z,11.60
2023-01-02T00:04:55.171Z,11.60
2023-01-02T00:05:55.170Z,11.60
2023-01-02T00:06:55.143Z,12.40
2023-01-02T00:07:55.098Z,12.20
2023-01-02T00:08:55.089Z,12.70
2023-01-02T00:09:55.132Z,13.10
2023-01-02T00:10:55.106Z,12.90
2023-01-02T00:11:55.071Z,13.10
2023-01-02T00:12:55.080Z,12.90
2023-01-02T00:13:55.055Z,12.50
2023-01-02T00:14:55.035Z,12.40
2023-01-02T00:15:55.097Z,13.10
2023-01-02T00:16:55.001Z,14.10
2023-01-02T00:17:54.980Z,12.10
2023-01-02T00:18:55.016Z,14.20
2023-01-02T00:19:54.957Z,14.30
2023-01-02T00:20:54.968Z,13.50
2023-01-02T00:21:54.967Z,13.60
2023-01-02T00:22:54.927Z,14.00
2023-01-02T00:23:54.914Z,13.00
2023-01-02T00:24:54.928Z,14.30
2023-01-02T00:25:54.900Z,13.00
2023-01-02T00:26:54.917Z,13.40
2023-01-02T00:27:54.923Z,13.20
2023-01-02T00:28:54.908Z,13.50
2023-01-02T00:29:54.845Z,13.70
2023-01-02T00:30:54.912Z,12.70
2023-01-02T00:31:54.850Z,14.30
2023-01-02T00:32:54.831Z,12.60
2023-01-02T00:33:54.857Z,13.40
2023-01-02T00:34:54.852Z,12.00
2023-01-02T00:35:54.805Z,13.40
2023-01-02T00:36:54.768Z,12.70
2023-01-02T00:37:54.777Z,13.50
2023-01-02T00:38:54.791Z,14.10
2023-01-02T00:39:54.778Z,14.00
2023-01-02T00:40:54.723Z,14.00
2023-01-02T00:41:54.741Z,12.70
2023-01-02T00:42:54.755Z,13.70
2023-01-02T00:43:54.752Z,13.40
2023-01-02T00:44:54.680Z,13.30
2023-01-02T00:45:54.664Z,14.40
2023-01-02T00:46:54.724Z,13.20
2023-01-02T00:47:54.772Z,13.50
2023-01-02T00:48:54.644Z,13.10
2023-01-02T00:49:54.639Z,16.60
2023-01-02T00:50:54.612Z,14.50
2023-01-02T00:51:54.602Z,13.80
2023-01-02T00:52:54.594Z,13.20
2023-01-02T00:53:54.609Z,14.50
2023-01-02T00:54:54.586Z,12.80
2023-01-02T00:55:54.565Z,13.00
2023-01-02T00:56:54.544Z,12.90
2023-01-02T00:57:54.531Z,13.40
2023-01-02T00:58:54.541Z,12.40
2023-01-02T00:59:54.555Z,12.90
2023-01-02T01:00:54.579Z,12.60
2023-01-02T01:01:54.588Z,13.20
2023-01-02T01:03:03.520Z,12.50
2023-01-02T01:03:54.988Z,12.60
2023-01-02T01:04:54.460Z,13.90
2023-01-02T01:05:54.458Z,12.90
2023-01-02T01:06:54.448Z,12.20
2023-01-02T01:07:54.445Z,14.40
2023-01-02T01:08:54.431Z,13.20
2023-01-02T01:09:54.407Z,14.70
2023-01-02T01:10:54.420Z,12.90
2023-01-02T01:11:54.419Z,13.20
2023-01-02T01:12:54.401Z,13.40
2023-01-02T01:13:54.395Z,13.60
2023-01-02T01:14:54.343Z,12.60
2023-01-02T01:15:54.444Z,12.50
2023-01-02T01:16:54.324Z,13.20
2023-01-02T01:17:54.367Z,13.70
2023-01-02T01:18:54.301Z,12.00
2023-01-02T01:19:54.287Z,12.30
2023-01-02T01:20:54.276Z,12.00
2023-01-02T01:21:54.262Z,11.60
2023-01-02T01:22:54.303Z,13.90
2023-01-02T01:23:54.313Z,13.20
2023-01-02T01:24:54.230Z,12.70
2023-01-02T01:25:54.263Z,13.70
2023-01-02T01:26:54.208Z,14.40
2023-01-02T01:27:54.200Z,14.00
2023-01-02T01:28:54.224Z,13.50
2023-01-02T01:29:54.202Z,12.80
2023-01-02T01:30:54.166Z,12.70
2023-01-02T01:31:54.245Z,12.00
2023-01-02T01:32:54.180Z,13.40
2023-01-02T01:33:54.478Z,11.70
2023-01-02T01:34:54.178Z,12.60
2023-01-02T01:35:54.110Z,11.60
2023-01-02T01:36:54.096Z,13.10
2023-01-02T01:37:54.091Z,12.40
2023-01-02T01:38:54.088Z,11.60
2023-01-02T01:39:56.864Z,12.30
2023-01-02T01:40:54.086Z,11.70
2023-01-02T01:41:54.063Z,11.80
2023-01-02T01:43:00.573Z,12.20
2023-01-02T01:43:55.055Z,12.20
2023-01-02T01:44:54.007Z,13.00
2023-01-02T01:45:54.063Z,10.70
2023-01-02T01:46:53.988Z,10.60
2023-01-02T01:47:53.990Z,10.50
2023-01-02T01:48:53.962Z,10.50
2023-01-02T01:49:53.979Z,10.90
2023-01-02T01:50:53.964Z,10.20
2023-01-02T01:51:53.957Z,9.60
2023-01-02T01:52:53.920Z,10.90
2023-01-02T01:53:53.904Z,11.30
2023-01-02T01:54:53.965Z,10.50
2023-01-02T01:55:53.926Z,8.30
2023-01-02T01:56:53.884Z,10.90
2023-01-02T01:57:53.927Z,9.00
2023-01-02T01:58:53.853Z,10.10
2023-01-02T01:59:53.863Z,11.00
2023-01-02T02:00:53.927Z,9.40
2023-01-02T02:01:54.072Z,9.50
2023-01-02T02:02:53.996Z,9.00
2023-01-02T02:03:53.822Z,9.50
2023-01-02T02:04:53.788Z,10.00
2023-01-02T02:05:53.798Z,9.50
2023-01-02T02:06:53.786Z,8.90
2023-01-02T02:07:53.756Z,10.20
2023-01-02T02:08:53.782Z,10.50
2023-01-02T02:09:53.773Z,11.00
2023-01-02T02:10:53.717Z,10.30
2023-01-02T02:11:53.727Z,9.60
2023-01-02T02:12:53.743Z,10.60
2023-01-02T02:13:53.696Z,11.90
2023-01-02T02:14:53.703Z,12.10
2023-01-02T02:15:53.663Z,12.50
2023-01-02T02:16:53.678Z,12.80
2023-01-02T02:17:53.657Z,11.30
2023-01-02T02:18:53.667Z,9.90
2023-01-02T02:19:53.658Z,10.70
2023-01-02T02:20:53.628Z,10.10
2023-01-02T02:21:53.598Z,11.70
2023-01-02T02:22:53.583Z,10.70
2023-01-02T02:23:53.600Z,11.30
2023-01-02T02:24:53.600Z,10.90
2023-01-02T02:25:53.583Z,10.30
2023-01-02T02:26:53.546Z,9.50
2023-01-02T02:27:53.583Z,9.40
2023-01-02T02:28:53.515Z,9.80
2023-01-02T02:29:53.503Z,12.10
2023-01-02T02:30:53.505Z,12.10
2023-01-02T02:31:53.529Z,11.10
2023-01-02T02:32:53.523Z,9.90
2023-01-02T02:33:53.468Z,11.40
2023-01-02T02:34:53.472Z,11.00
2023-01-02T02:35:53.459Z,10.90
2023-01-02T02:36:53.462Z,11.30
2023-01-02T02:37:53.457Z,11.20
2023-01-02T02:38:53.467Z,10.90
2023-01-02T02:39:53.399Z,11.20
2023-01-02T02:40:53.385Z,9.60
2023-01-02T02:41:53.399Z,10.80
2023-01-02T02:42:53.385Z,11.50
2023-01-02T02:43:53.394Z,11.60
2023-01-02T02:44:53.340Z,11.60
2023-01-02T02:45:53.393Z,10.40
2023-01-02T02:46:53.356Z,10.60
2023-01-02T02:47:53.313Z,10.00
2023-01-02T02:48:53.350Z,11.90
2023-01-02T02:49:53.291Z,10.50
2023-01-02T02:50:53.298Z,11.20
2023-01-02T02:51:53.292Z,12.40
2023-01-02T02:52:53.250Z,11.50
2023-01-02T02:53:53.260Z,12.10
2023-01-02T02:54:53.255Z,10.80
2023-01-02T02:55:53.270Z,11.20
2023-01-02T02:56:53.206Z,10.50
2023-01-02T02:57:53.205Z,10.60
2023-01-02T02:58:53.185Z,10.80
2023-01-02T02:59:53.199Z,10.40
2023-01-02T03:00:53.245Z,11.10
2023-01-02T03:01:53.479Z,11.90
2023-01-02T03:02:53.259Z,13.40
2023-01-02T03:03:53.131Z,13.30
2023-01-02T03:04:53.133Z,14.00
2023-01-02T03:05:53.145Z,12.70
2023-01-02T03:06:53.142Z,13.10
2023-01-02T03:07:53.097Z,13.60
2023-01-02T03:08:53.088Z,11.30
2023-01-02T03:09:53.090Z,12.50
2023-01-02T03:10:53.071Z,12.30
2023-01-02T03:11:53.095Z,14.00
2023-01-02T03:12:53.049Z,13.80
2023-01-02T03:13:53.015Z,13.70
2023-01-02T03:14:53.004Z,15.70
2023-01-02T03:15:53.035Z,13.90
2023-01-02T03:16:53.020Z,14.50
2023-01-02T03:17:53.004Z,14.40
2023-01-02T03:18:53.011Z,13.20
2023-01-02T03:19:52.949Z,13.80
2023-01-02T03:20:52.936Z,15.60
2023-01-02T03:21:52.936Z,13.60
2023-01-02T03:22:52.948Z,12.60
2023-01-02T03:23:52.974Z,13.50
2023-01-02T03:24:52.889Z,12.90
2023-01-02T03:25:52.960Z,13.60
2023-01-02T03:26:52.892Z,12.20
2023-01-02T03:27:52.916Z,12.10
2023-01-02T03:28:52.887Z,13.20
2023-01-02T03:29:52.891Z,12.20
2023-01-02T03:30:52.897Z,11.60
2023-01-02T03:31:52.850Z,11.30
2023-01-02T03:32:52.843Z,12.10
2023-01-02T03:33:52.850Z,13.20
2023-01-02T03:34:52.841Z,11.20
2023-01-02T03:35:52.783Z,12.30
2023-01-02T03:36:52.789Z,12.90
2023-01-02T03:37:52.773Z,12.90
2023-01-02T03:38:52.782Z,13.20
2023-01-02T03:39:52.761Z,13.50
2023-01-02T03:40:52.772Z,13.30
2023-01-02T03:41:52.705Z,12.00
2023-01-02T03:42:52.715Z,12.20
2023-01-02T03:43:56.809Z,11.90
2023-01-02T03:44:52.715Z,12.30
2023-01-02T03:45:52.755Z,11.60
2023-01-02T03:46:52.652Z,11.80
2023-01-02T03:47:52.644Z,11.60
2023-01-02T03:48:52.668Z,10.80
2023-01-02T03:49:52.640Z,10.50
2023-01-02T03:50:52.703Z,10.00
2023-01-02T03:51:52.634Z,12.10
2023-01-02T03:52:52.592Z,10.70
2023-01-02T03:53:52.569Z,11.00
2023-01-02T03:54:52.557Z,11.60
2023-01-02T03:55:52.583Z,10.10
2023-01-02T03:56:52.599Z,12.00
2023-01-02T03:57:57.231Z,9.60
2023-01-02T03:58:53.535Z,9.60
2023-01-02T03:59:52.523Z,10.90
2023-01-02T04:00:52.497Z,10.30
2023-01-02T04:01:52.684Z,10.40
2023-01-02T04:02:52.542Z,10.00
2023-01-02T04:03:52.513Z,9.70
2023-01-02T04:04:52.450Z,9.40
2023-01-02T04:05:52.442Z,10.70
2023-01-02T04:06:52.455Z,10.70
2023-01-02T04:07:52.444Z,9.10
2023-01-02T04:08:52.448Z,10.70
2023-01-02T04:09:52.409Z,10.50
2023-01-02T04:10:57.983Z,11.10
2023-01-02T04:11:53.448Z,11.30
2023-01-02T04:12:52.379Z,10.10
2023-01-02T04:13:52.376Z,10.20
2023-01-02T04:14:52.375Z,10.70
2023-01-02T04:15:52.341Z,10.80
2023-01-02T04:16:52.315Z,11.40
2023-01-02T04:17:52.337Z,11.70
2023-01-02T04:18:52.311Z,12.40
2023-01-02T04:19:52.305Z,11.10
2023-01-02T04:20:52.272Z,12.10
2023-01-02T04:21:52.331Z,10.90
2023-01-02T04:22:52.273Z,12.00
2023-01-02T04:23:52.270Z,10.50
2023-01-02T04:24:52.251Z,11.30
2023-01-02T04:25:52.250Z,11.80
2023-01-02T04:26:52.249Z,10.70
2023-01-02T04:27:52.212Z,10.70
2023-01-02T04:28:52.180Z,10.80
2023-01-02T04:29:52.180Z,10.50
2023-01-02T04:30:52.266Z,10.30
2023-01-02T04:31:52.147Z,11.80
2023-01-02T04:32:52.130Z,10.00
2023-01-02T04:33:52.133Z,10.40
2023-01-02T04:34:52.146Z,10.70
2023-01-02T04:35:52.122Z,9.40
2023-01-02T04:36:52.126Z,11.00
2023-01-02T04:37:52.140Z,11.80
2023-01-02T04:38:52.066Z,11.20
2023-01-02T04:39:52.069Z,10.50
2023-01-02T04:40:52.060Z,10.10
2023-01-02T04:41:52.055Z,9.90
2023-01-02T04:42:52.061Z,10.60
2023-01-02T04:43:52.039Z,10.60
2023-01-02T04:44:52.004Z,8.70
2023-01-02T04:45:52.029Z,9.70
2023-01-02T04:46:52.028Z,9.20
2023-01-02T04:47:51.981Z,10.70
2023-01-02T04:48:51.997Z,9.30
2023-01-02T04:49:51.980Z,10.60
2023-01-02T04:50:51.934Z,10.10
2023-01-02T04:51:51.946Z,9.90
2023-01-02T04:52:51.935Z,9.90
2023-01-02T04:53:51.939Z,10.50
2023-01-02T04:54:51.902Z,9.40
2023-01-02T04:55:51.877Z,9.10
2023-01-02T04:56:51.903Z,10.80
2023-01-02T04:57:51.870Z,9.70
2023-01-02T04:58:51.875Z,8.70
2023-01-02T04:59:51.887Z,10.30
2023-01-02T05:00:51.824Z,9.40
2023-01-02T05:01:51.928Z,10.40
2023-01-02T05:02:51.890Z,9.30
2023-01-02T05:03:51.846Z,10.30
2023-01-02T05:04:51.831Z,10.80
2023-01-02T05:05:51.799Z,11.50
2023-01-02T05:06:51.756Z,11.80
2023-01-02T05:07:51.766Z,11.00
2023-01-02T05:08:51.769Z,10.40
2023-01-02T05:09:51.750Z,10.20
2023-01-02T05:10:51.744Z,10.90
2023-01-02T05:11:51.700Z,11.60
2023-01-02T05:12:51.689Z,11.70
2023-01-02T05:13:51.752Z,10.70
2023-01-02T05:14:51.671Z,11.10
2023-01-02T05:15:51.747Z,10.20
2023-01-02T05:16:51.676Z,11.90
2023-01-02T05:17:51.835Z,9.80
2023-01-02T05:18:51.623Z,11.40
2023-01-02T05:19:51.617Z,10.70
2023-01-02T05:20:51.615Z,10.50
2023-01-02T05:21:51.605Z,8.90
2023-01-02T05:22:51.583Z,10.20
2023-01-02T05:23:51.600Z,9.90
2023-01-02T05:24:51.560Z,10.50
2023-01-02T05:25:51.550Z,11.60
2023-01-02T05:26:51.550Z,11.00
2023-01-02T05:27:51.539Z,11.30
2023-01-02T05:28:51.565Z,10.90
2023-01-02T05:29:51.559Z,11.10
2023-01-02T05:30:51.574Z,11.50
2023-01-02T05:31:51.631Z,9.60
2023-01-02T05:32:51.500Z,9.30
2023-01-02T05:33:51.498Z,9.90
2023-01-02T05:34:51.492Z,11.20
2023-01-02T05:35:51.474Z,11.70
2023-01-02T05:36:51.441Z,11.10
2023-01-02T05:37:51.420Z,10.20
2023-01-02T05:38:51.422Z,10.70
2023-01-02T05:39:51.443Z,10.60
2023-01-02T05:40:51.980Z,10.70
2023-01-02T05:41:51.381Z,10.30
2023-01-02T05:42:51.370Z,10.90
2023-01-02T05:43:51.379Z,11.30
2023-01-02T05:44:51.416Z,9.60
2023-01-02T05:45:51.379Z,10.90
2023-01-02T05:46:51.366Z,12.70
2023-01-02T05:47:51.329Z,12.30
2023-01-02T05:48:51.300Z,9.90
2023-01-02T05:49:51.310Z,12.20
2023-01-02T05:50:51.305Z,13.40
2023-01-02T05:51:51.307Z,12.90
2023-01-02T05:52:51.250Z,14.70
2023-01-02T05:53:51.255Z,16.40
2023-01-02T05:54:51.226Z,12.90
2023-01-02T05:55:51.226Z,12.30
2023-01-02T05:56:51.218Z,13.20
2023-01-02T05:57:51.240Z,12.20
2023-01-02T05:58:51.180Z,11.50
2023-01-02T05:59:51.189Z,13.20
2023-01-02T06:00:51.168Z,12.50
2023-01-02T06:01:51.349Z,12.10
2023-01-02T06:02:51.373Z,11.40
2023-01-02T06:03:51.244Z,11.20
2023-01-02T06:04:51.113Z,10.30
2023-01-02T06:05:51.122Z,11.90
2023-01-02T06:06:51.126Z,12.50
2023-01-02T06:07:51.118Z,12.20
2023-01-02T06:08:51.133Z,11.30
2023-01-02T06:09:51.078Z,10.20
2023-01-02T06:10:51.053Z,12.60
2023-01-02T06:11:51.042Z,12.80
2023-01-02T06:12:51.032Z,10.70
2023-01-02T06:13:51.057Z,10.70
2023-01-02T06:14:51.057Z,14.30
2023-01-02T06:15:50.991Z,13.50
2023-01-02T06:16:51.003Z,12.70
2023-01-02T06:17:50.990Z,14.40
2023-01-02T06:18:50.977Z,12.00
2023-01-02T06:19:54.061Z,12.70
2023-01-02T06:20:50.937Z,12.90
2023-01-02T06:21:50.935Z,12.40
2023-01-02T06:22:50.934Z,11.50
2023-01-02T06:23:50.956Z,14.20
2023-01-02T06:24:50.915Z,12.50
2023-01-02T06:25:50.923Z,11.90
2023-01-02T06:26:50.865Z,12.70
2023-01-02T06:27:50.857Z,11.70
2023-01-02T06:28:50.880Z,11.60
2023-01-02T06:29:50.874Z,12.10
2023-01-02T06:30:50.861Z,15.30
2023-01-02T06:31:51.727Z,13.80
2023-01-02T06:32:50.798Z,12.70
2023-01-02T06:33:50.805Z,12.30
2023-01-02T06:34:50.790Z,14.40
2023-01-02T06:35:50.829Z,12.60
2023-01-02T06:36:50.758Z,12.70
2023-01-02T06:37:50.765Z,13.10
2023-01-02T06:38:50.756Z,12.60
2023-01-02T06:39:50.737Z,12.60
2023-01-02T06:40:50.745Z,12.80
2023-01-02T06:41:50.730Z,12.60
2023-01-02T06:42:52.208Z,13.90
2023-01-02T06:43:50.687Z,13.50
2023-01-02T06:44:50.669Z,12.90
2023-01-02T06:45:50.722Z,13.90
2023-01-02T06:46:50.666Z,14.20
2023-01-02T06:47:50.676Z,14.60
2023-01-02T06:48:50.637Z,15.60
2023-01-02T06:49:50.635Z,12.70
2023-01-02T06:50:50.629Z,13.10
2023-01-02T06:51:50.618Z,13.00
2023-01-02T06:52:50.601Z,13.70
2023-01-02T06:53:50.607Z,14.10
2023-01-02T06:54:50.564Z,13.40
2023-01-02T06:55:50.545Z,13.20
2023-01-02T06:56:50.563Z,14.70
2023-01-02T06:57:50.566Z,12.80
2023-01-02T06:58:50.533Z,15.00
2023-01-02T06:59:50.500Z,16.50
2023-01-02T07:00:50.525Z,14.40
2023-01-02T07:01:50.608Z,17.10
2023-01-02T07:02:50.547Z,13.60
2023-01-02T07:03:50.494Z,14.40
2023-01-02T07:04:50.473Z,14.30
2023-01-02T07:05:50.433Z,12.90
2023-01-02T07:06:50.425Z,13.60
2023-01-02T07:07:50.468Z,12.90
2023-01-02T07:08:50.438Z,13.60
2023-01-02T07:09:50.424Z,14.50
2023-01-02T07:10:53.006Z,12.40
2023-01-02T07:11:50.368Z,13.70
2023-01-02T07:12:50.387Z,14.90
2023-01-02T07:13:50.439Z,14.60
2023-01-02T07:14:50.346Z,14.50
2023-01-02T07:15:50.333Z,14.60
2023-01-02T07:16:50.373Z,15.20
2023-01-02T07:17:50.313Z,14.60
2023-01-02T07:18:50.299Z,15.10
2023-01-02T07:19:54.471Z,13.30
2023-01-02T07:20:51.298Z,13.70
2023-01-02T07:21:50.277Z,15.00
2023-01-02T07:22:50.245Z,15.40
2023-01-02T07:23:50.252Z,15.30
2023-01-02T07:24:50.258Z,18.00
2023-01-02T07:25:50.217Z,15.90
2023-01-02T07:26:50.210Z,16.50
2023-01-02T07:27:50.229Z,14.90
2023-01-02T07:28:50.184Z,15.60
2023-01-02T07:29:50.166Z,15.80
2023-01-02T07:30:50.193Z,16.20
2023-01-02T07:31:50.282Z,18.10
2023-01-02T07:32:50.157Z,16.60
2023-01-02T07:33:50.130Z,16.10
2023-01-02T07:34:50.108Z,19.00
2023-01-02T07:35:50.130Z,15.90
2023-01-02T07:36:50.134Z,17.90
2023-01-02T07:37:50.095Z,18.00
2023-01-02T07:38:50.064Z,16.00
2023-01-02T07:39:50.072Z,15.90
2023-01-02T07:40:50.058Z,19.70
2023-01-02T07:41:50.032Z,16.30
2023-01-02T07:42:50.061Z,15.80
2023-01-02T07:43:50.038Z,17.10
2023-01-02T07:44:50.017Z,16.40
2023-01-02T07:45:50.899Z,16.30
2023-01-02T07:46:50.040Z,16.40
2023-01-02T07:47:49.983Z,15.60
2023-01-02T07:48:49.963Z,15.60
2023-01-02T07:49:49.973Z,16.60
2023-01-02T07:50:49.937Z,16.90
2023-01-02T07:51:49.979Z,16.50
2023-01-02T07:52:49.940Z,17.40
2023-01-02T07:53:49.903Z,16.60
2023-01-02T07:54:49.918Z,17.70
2023-01-02T07:55:49.926Z,15.50
2023-01-02T07:56:49.912Z,16.70
2023-01-02T07:57:49.853Z,16.90
2023-01-02T07:58:49.859Z,16.90
2023-01-02T07:59:49.845Z,15.50
2023-01-02T08:00:49.883Z,16.70
2023-01-02T08:01:50.000Z,16.60
2023-01-02T08:02:49.815Z,16.50
2023-01-02T08:03:49.985Z,16.80
2023-01-02T08:04:49.789Z,18.10
2023-01-02T08:05:49.779Z,17.70
2023-01-02T08:06:49.785Z,17.40
2023-01-02T08:07:49.743Z,21.10
2023-01-02T08:08:49.800Z,20.80
2023-01-02T08:09:49.756Z,20.30
2023-01-02T08:10:49.720Z,20.50
2023-01-02T08:11:49.840Z,21.60
2023-01-02T08:12:49.724Z,20.30
2023-01-02T08:13:49.673Z,21.30
2023-01-02T08:14:49.723Z,21.00
2023-01-02T08:15:49.661Z,21.30
2023-01-02T08:16:49.709Z,19.10
2023-01-02T08:17:49.660Z,20.30
2023-01-02T08:18:49.691Z,20.60
2023-01-02T08:19:49.627Z,20.20
2023-01-02T08:20:49.596Z,19.30
2023-01-02T08:21:49.587Z,18.80
2023-01-02T08:22:49.601Z,19.10
2023-01-02T08:23:49.599Z,18.40
2023-01-02T08:24:49.588Z,19.30
2023-01-02T08:25:55.605Z,19.30
2023-01-02T08:26:50.566Z,19.50
2023-01-02T08:27:49.534Z,18.90
2023-01-02T08:28:49.552Z,18.20
2023-01-02T08:29:49.511Z,18.80
2023-01-02T08:30:49.521Z,18.80
2023-01-02T08:31:49.505Z,16.40
2023-01-02T08:32:49.480Z,16.80
2023-01-02T08:33:49.499Z,17.30
2023-01-02T08:34:49.457Z,17.20
2023-01-02T08:35:49.470Z,17.40
2023-01-02T08:36:49.417Z,18.30
2023-01-02T08:37:50.800Z,18.80
2023-01-02T08:38:49.429Z,21.50
2023-01-02T08:39:49.405Z,19.00
2023-01-02T08:40:49.409Z,21.90
2023-01-02T08:41:49.408Z,20.50
2023-01-02T08:42:49.410Z,21.40
2023-01-02T08:43:49.455Z,22.40
2023-01-02T08:44:49.329Z,23.10
2023-01-02T08:45:49.385Z,22.20
2023-01-02T08:46:49.407Z,21.80
2023-01-02T08:47:49.293Z,22.20
2023-01-02T08:48:49.351Z,19.50
2023-01-02T08:49:49.311Z,18.50
2023-01-02T08:50:49.267Z,19.00
2023-01-02T08:51:49.263Z,17.70
2023-01-02T08:52:49.274Z,20.20
2023-01-02T08:53:49.295Z,19.60
2023-01-02T08:54:49.224Z,18.40
2023-01-02T08:55:49.231Z,18.90
2023-01-02T08:56:49.240Z,18.50
2023-01-02T08:57:49.203Z,18.20
2023-01-02T08:58:52.680Z,20.10
2023-01-02T08:59:49.274Z,19.00
2023-01-02T09:00:49.151Z,18.10
2023-01-02T09:01:49.266Z,17.30
2023-01-02T09:02:49.334Z,16.10
2023-01-02T09:03:49.146Z,15.10
2023-01-02T09:04:49.109Z,15.70
2023-01-02T09:05:49.113Z,14.00
2023-01-02T09:06:49.091Z,14.70
2023-01-02T09:07:49.077Z,14.70
2023-01-02T09:08:49.117Z,14.00
2023-01-02T09:09:49.076Z,14.00
2023-01-02T09:10:49.087Z,15.10
2023-01-02T09:11:49.063Z,15.00
2023-01-02T09:12:49.044Z,15.40
2023-01-02T09:13:49.052Z,14.60
2023-01-02T09:14:49.030Z,14.20
2023-01-02T09:15:49.136Z,14.70
2023-01-02T09:16:48.971Z,13.90
2023-01-02T09:17:48.964Z,14.20
2023-01-02T09:18:48.953Z,12.20
2023-01-02T09:19:48.986Z,13.30
2023-01-02T09:20:48.953Z,12.30
2023-01-02T09:21:48.916Z,12.70
2023-01-02T09:22:48.905Z,12.90
2023-01-02T09:23:48.906Z,12.30
2023-01-02T09:24:48.925Z,12.30
2023-01-02T09:25:48.887Z,12.10
2023-01-02T09:26:48.897Z,12.70
2023-01-02T09:27:48.848Z,12.10
2023-01-02T09:28:48.879Z,12.20
2023-01-02T09:29:48.867Z,12.30
2023-01-02T09:30:48.880Z,13.80
2023-01-02T09:31:48.951Z,12.80
2023-01-02T09:32:48.793Z,12.50
2023-01-02T09:33:48.787Z,11.40
2023-01-02T09:34:49.112Z,11.20
2023-01-02T09:35:48.765Z,11.70
2023-01-02T09:36:48.764Z,13.50
2023-01-02T09:37:48.775Z,15.60
2023-01-02T09:38:48.772Z,11.70
2023-01-02T09:39:48.722Z,13.40
2023-01-02T09:40:48.744Z,12.30
2023-01-02T09:41:48.736Z,11.90
2023-01-02T09:42:48.709Z,12.40
2023-01-02T09:43:48.701Z,12.10
2023-01-02T09:44:48.722Z,11.80
2023-01-02T09:45:48.659Z,12.70
2023-01-02T09:46:48.714Z,12.40
2023-01-02T09:47:48.769Z,13.00
2023-01-02T09:48:48.641Z,12.70
2023-01-02T09:49:48.601Z,13.50
2023-01-02T09:50:48.604Z,13.70
2023-01-02T09:51:48.615Z,13.90
2023-01-02T09:52:48.588Z,12.80
2023-01-02T09:53:48.566Z,12.60
2023-01-02T09:54:48.548Z,13.40
2023-01-02T09:55:48.599Z,13.30
2023-01-02T09:56:48.523Z,14.30
2023-01-02T09:57:48.517Z,14.00
2023-01-02T09:58:48.517Z,14.20
2023-01-02T09:59:48.535Z,13.70
2023-01-02T10:00:48.507Z,14.20
2023-01-02T10:01:48.540Z,14.50
2023-01-02T10:02:48.558Z,15.30
2023-01-02T10:03:48.506Z,14.30
2023-01-02T10:04:48.471Z,13.60
2023-01-02T10:05:48.449Z,13.30
2023-01-02T10:06:48.474Z,13.70
2023-01-02T10:07:48.395Z,13.10
2023-01-02T10:08:48.386Z,12.30
2023-01-02T10:09:48.384Z,12.70
2023-01-02T10:10:48.414Z,11.80
2023-01-02T10:11:48.404Z,12.90
2023-01-02T10:12:48.343Z,13.20
2023-01-02T10:14:19.533Z,13.90
2023-01-02T10:14:49.356Z,15.10
2023-01-02T10:15:48.361Z,13.90
2023-01-02T10:16:48.685Z,15.50
2023-01-02T10:17:48.285Z,16.00
2023-01-02T10:18:48.275Z,15.20
2023-01-02T10:19:48.295Z,16.20
2023-01-02T10:20:48.288Z,17.30
2023-01-02T10:21:48.260Z,16.00
2023-01-02T10:22:48.257Z,16.50
2023-01-02T10:23:48.249Z,16.20
2023-01-02T10:24:48.289Z,18.30
2023-01-02T10:25:52.686Z,21.10
2023-01-02T10:26:48.199Z,19.80
2023-01-02T10:27:48.204Z,20.90
2023-01-02T10:28:48.163Z,19.50
2023-01-02T10:29:48.155Z,18.70
2023-01-02T10:30:48.159Z,18.80
2023-01-02T10:31:52.030Z,18.70
2023-01-02T10:32:48.137Z,19.00
2023-01-02T10:33:48.285Z,20.70
2023-01-02T10:34:48.102Z,21.90
2023-01-02T10:35:48.201Z,22.10
2023-01-02T10:36:48.155Z,22.50
2023-01-02T10:37:48.096Z,20.70
2023-01-02T10:38:48.067Z,21.40
2023-01-02T10:39:48.093Z,22.30
2023-01-02T10:40:48.028Z,21.90
2023-01-02T10:41:48.015Z,22.80
2023-01-02T10:42:48.031Z,20.80
2023-01-02T10:43:48.010Z,17.20
2023-01-02T10:44:48.002Z,17.10
2023-01-02T10:45:47.977Z,17.60
2023-01-02T10:46:47.974Z,18.10
2023-01-02T10:47:47.968Z,18.30
2023-01-02T10:48:52.066Z,17.10
2023-01-02T10:49:47.945Z,15.80
2023-01-02T10:50:47.936Z,16.00
2023-01-02T10:51:48.013Z,15.20
2023-01-02T10:52:47.955Z,15.10
2023-01-02T10:53:47.893Z,15.40
2023-01-02T10:54:51.067Z,14.80
2023-01-02T10:55:48.903Z,15.00
2023-01-02T10:56:47.915Z,13.20
2023-01-02T10:57:47.845Z,12.60
2023-01-02T10:58:47.862Z,14.60
2023-01-02T10:59:47.843Z,11.00
2023-01-02T11:00:47.916Z,10.20
2023-01-02T11:01:47.951Z,11.00
2023-01-02T11:02:47.877Z,11.10
2023-01-02T11:03:56.056Z,10.70
2023-01-02T11:04:47.795Z,10.80
2023-01-02T11:05:47.764Z,10.80
2023-01-02T11:06:47.784Z,11.50
2023-01-02T11:07:47.742Z,10.80
2023-01-02T11:08:47.716Z,10.50
2023-01-02T11:09:47.755Z,10.40
2023-01-02T11:10:47.702Z,11.10
2023-01-02T11:11:47.679Z,11.00
2023-01-02T11:12:47.740Z,12.30
2023-01-02T11:13:53.794Z,12.00
2023-01-02T11:14:48.678Z,11.80
2023-01-02T11:15:47.657Z,14.70
2023-01-02T11:16:47.632Z,14.20
2023-01-02T11:17:47.612Z,13.00
2023-01-02T11:18:47.657Z,13.80
2023-01-02T11:19:47.595Z,13.50
2023-01-02T11:20:47.594Z,15.90
2023-01-02T11:21:47.576Z,13.20
2023-01-02T11:22:47.594Z,12.10
2023-01-02T11:23:47.575Z,13.10
2023-01-02T11:24:47.588Z,11.90
2023-01-02T11:25:47.531Z,11.20
2023-01-02T11:26:47.527Z,12.30
2023-01-02T11:27:47.514Z,11.90
2023-01-02T11:28:47.520Z,11.10
2023-01-02T11:29:47.494Z,11.40
2023-01-02T11:30:47.533Z,11.80
2023-01-02T11:31:49.392Z,11.30
2023-01-02T11:32:47.484Z,12.60
2023-01-02T11:33:47.460Z,12.80
2023-01-02T11:34:47.426Z,12.20
2023-01-02T11:35:47.412Z,12.20
2023-01-02T11:36:47.419Z,12.20
2023-01-02T11:37:47.418Z,12.20
2023-01-02T11:38:47.386Z,11.70
2023-01-02T11:39:47.477Z,13.80
2023-01-02T11:40:47.388Z,12.10
2023-01-02T11:41:47.352Z,12.00
2023-01-02T11:42:47.333Z,12.30
2023-01-02T11:43:47.390Z,11.60
2023-01-02T11:44:47.325Z,12.40
2023-01-02T11:45:47.375Z,11.90
2023-01-02T11:46:47.291Z,12.10
2023-01-02T11:47:47.285Z,11.90
2023-01-02T11:48:47.300Z,12.60
2023-01-02T11:49:47.276Z,12.50
2023-01-02T11:50:47.256Z,13.10
2023-01-02T11:51:47.235Z,12.10
2023-01-02T11:52:47.226Z,12.80
2023-01-02T11:53:47.243Z,12.10
2023-01-02T11:54:47.216Z,13.10
2023-01-02T11:55:47.231Z,15.50
2023-01-02T11:56:47.192Z,14.50
2023-01-02T11:57:47.166Z,14.50
2023-01-02T11:58:47.172Z,12.60
2023-01-02T11:59:47.151Z,11.40
2023-01-02T12:00:47.168Z,12.60
2023-01-02T12:01:47.341Z,11.70
2023-01-02T12:02:47.241Z,11.20
2023-01-02T12:03:47.141Z,12.30
2023-01-02T12:04:47.091Z,11.10
2023-01-02T12:05:47.082Z,11.90
2023-01-02T12:06:47.090Z,11.50
2023-01-02T12:07:47.085Z,12.60
2023-01-02T12:08:51.332Z,12.90
2023-01-02T12:09:47.032Z,12.20
2023-01-02T12:10:47.041Z,12.00
2023-01-02T12:11:47.046Z,11.30
2023-01-02T12:12:47.011Z,11.90
2023-01-02T12:13:47.017Z,11.90
2023-01-02T12:14:54.119Z,13.90
2023-01-02T12:15:47.986Z,13.20
2023-01-02T12:16:47.014Z,13.40
2023-01-02T12:17:46.976Z,13.10
2023-01-02T12:18:46.932Z,13.10
2023-01-02T12:19:46.943Z,12.40
2023-01-02T12:20:46.903Z,12.80
2023-01-02T12:21:46.913Z,13.90
2023-01-02T12:22:46.901Z,13.90
2023-01-02T12:23:46.921Z,14.10
2023-01-02T12:24:46.878Z,13.90
2023-01-02T12:25:46.936Z,14.90
2023-01-02T12:26:46.835Z,13.70
2023-01-02T12:27:46.950Z,12.40
2023-01-02T12:28:46.813Z,12.00
2023-01-02T12:29:48.887Z,12.00
2023-01-02T12:30:46.818Z,11.80
2023-01-02T12:31:46.890Z,11.20
2023-01-02T12:32:46.894Z,10.20
2023-01-02T12:33:46.805Z,10.40
2023-01-02T12:34:46.776Z,10.40
2023-01-02T12:35:46.753Z,9.60
2023-01-02T12:36:46.757Z,9.70
2023-01-02T12:37:46.717Z,9.30
2023-01-02T12:38:46.701Z,9.60
2023-01-02T12:39:46.713Z,8.70
2023-01-02T12:40:46.707Z,10.30
2023-01-02T12:42:00.517Z,8.50
2023-01-02T12:42:47.663Z,8.90
2023-01-02T12:43:46.662Z,9.30
2023-01-02T12:44:46.713Z,9.90
2023-01-02T12:45:46.666Z,7.60
2023-01-02T12:46:46.624Z,7.90
2023-01-02T12:47:46.618Z,8.90
2023-01-02T12:48:46.583Z,7.90
2023-01-02T12:49:46.581Z,8.20
2023-01-02T12:50:49.064Z,8.90
2023-01-02T12:51:46.556Z,9.10
2023-01-02T12:52:46.555Z,9.00
2023-01-02T12:53:46.571Z,8.30
2023-01-02T12:54:47.521Z,8.50